Time;durP1;ratioP1;P1;durP2;ratioP2;P2;SDS_P1;SDS_P2;PMS_P1;PMS_P2;Temp;Humidity;BMP_temperature;BMP_pressure;BME280_temperature;BME280_humidity;BME280_pressure;Samples;Min_cycle;Max_cycle;Signal;HPM_P1;HPM_P2
2021/10/30 00:00:10;;;;;;;8.10;7.00;;;13.40;99.90;;;;;;4906881;29;20067;-65
2021/10/30 00:02:36;;;;;;;9.63;7.32;;;13.30;99.90;;;;;;4929251;29;20071;-65
2021/10/30 00:05:04;;;;;;;10.13;7.07;;;13.40;99.90;;;;;;4929564;29;20051;-65
2021/10/30 00:07:29;;;;;;;8.10;6.95;;;13.50;99.90;;;;;;4912271;29;20052;-65
2021/10/30 00:09:55;;;;;;;8.32;6.80;;;13.30;99.90;;;;;;4930639;29;20070;-65
2021/10/30 00:12:21;;;;;;;9.98;7.25;;;13.50;99.90;;;;;;4912483;29;20071;-65
2021/10/30 00:14:48;;;;;;;8.88;6.70;;;13.40;99.90;;;;;;4929025;29;20048;-65
2021/10/30 00:17:14;;;;;;;11.02;7.60;;;13.40;99.90;;;;;;4912065;29;20056;-65
2021/10/30 00:19:40;;;;;;;10.00;6.82;;;13.40;99.90;;;;;;4912229;29;20055;-64
2021/10/30 00:22:06;;;;;;;7.72;6.43;;;13.10;99.90;;;;;;4926823;29;20060;-65
2021/10/30 00:24:33;;;;;;;11.27;7.20;;;13.10;99.90;;;;;;4911628;29;20051;-65
2021/10/30 00:26:59;;;;;;;10.93;7.28;;;13.10;99.90;;;;;;4912349;29;20048;-65
2021/10/30 00:29:25;;;;;;;8.80;6.93;;;13.20;99.90;;;;;;4944203;29;20051;-65
2021/10/30 00:31:53;;;;;;;9.48;7.70;;;13.30;99.90;;;;;;4928893;29;20086;-65
2021/10/30 00:34:19;;;;;;;8.45;7.30;;;13.20;99.90;;;;;;4911644;29;20076;-65
2021/10/30 00:36:44;;;;;;;8.43;6.88;;;13.20;99.90;;;;;;4912264;29;20115;-65
2021/10/30 00:39:10;;;;;;;10.27;6.70;;;13.30;99.90;;;;;;4928828;29;20079;-65
2021/10/30 00:41:36;;;;;;;9.05;6.75;;;13.30;99.90;;;;;;4942782;29;20076;-65
2021/10/30 00:44:11;;;;;;;9.93;7.40;;;13.30;99.90;;;;;;4943328;29;20055;-65
2021/10/30 00:46:40;;;;;;;8.93;6.30;;;13.30;99.90;;;;;;4910858;29;20052;-65
2021/10/30 00:49:07;;;;;;;7.97;6.13;;;13.10;99.90;;;;;;4928311;29;20052;-64
2021/10/30 00:51:35;;;;;;;8.85;6.75;;;13.20;99.90;;;;;;4911131;29;20107;-65
2021/10/30 00:54:03;;;;;;;7.90;6.88;;;13.30;99.90;;;;;;4928459;29;20147;-65
2021/10/30 00:56:31;;;;;;;10.73;6.22;;;13.50;99.90;;;;;;4942827;29;20060;-65
2021/10/30 00:59:03;;;;;;;7.43;6.00;;;13.40;99.90;;;;;;4910868;29;20116;-65
2021/10/30 01:01:29;;;;;;;7.78;6.43;;;13.30;99.90;;;;;;4911633;29;20055;-64
2021/10/30 01:03:55;;;;;;;9.70;7.20;;;13.30;99.90;;;;;;4910142;29;20051;-65
2021/10/30 01:06:21;;;;;;;8.05;6.18;;;13.20;99.90;;;;;;4943106;29;20058;-65
2021/10/30 01:08:46;;;;;;;8.05;6.35;;;13.30;99.90;;;;;;4911277;29;20131;-65
2021/10/30 01:11:15;;;;;;;8.43;6.78;;;13.30;99.90;;;;;;4928596;29;20127;-64
2021/10/30 01:13:41;;;;;;;13.27;7.00;;;13.20;99.90;;;;;;4911391;29;20056;-65
2021/10/30 01:16:07;;;;;;;6.95;6.10;;;13.30;99.90;;;;;;4942918;29;20052;-65
2021/10/30 01:18:33;;;;;;;8.25;6.05;;;13.10;99.90;;;;;;4915894;29;20465;-65
2021/10/30 01:20:59;;;;;;;7.22;6.03;;;13.20;99.90;;;;;;4942671;29;20052;-65
2021/10/30 01:23:24;;;;;;;6.63;5.65;;;13.40;99.90;;;;;;4928021;29;20108;-65
2021/10/30 01:26:00;;;;;;;7.50;5.93;;;13.40;99.90;;;;;;4926529;29;20044;-65
2021/10/30 01:28:27;;;;;;;6.88;5.32;;;13.40;99.90;;;;;;4928467;29;20100;-65
2021/10/30 01:30:53;;;;;;;7.85;6.05;;;13.40;99.90;;;;;;4942173;29;20056;-65
2021/10/30 01:33:19;;;;;;;8.20;6.13;;;13.30;99.90;;;;;;4927266;29;20044;-65
2021/10/30 01:35:45;;;;;;;7.18;5.57;;;13.10;99.90;;;;;;4927288;29;20058;-65
2021/10/30 01:38:11;;;;;;;7.75;5.72;;;13.20;99.90;;;;;;4942721;29;20048;-65
2021/10/30 01:40:42;;;;;;;6.25;5.47;;;13.10;99.90;;;;;;4910810;29;20107;-65
2021/10/30 01:43:09;;;;;;;8.75;6.18;;;13.10;99.90;;;;;;4941206;29;20108;-65
2021/10/30 01:45:35;;;;;;;6.07;5.47;;;13.00;99.90;;;;;;4927326;29;20078;-65
2021/10/30 01:48:01;;;;;;;7.93;6.47;;;13.00;99.90;;;;;;4927519;29;20104;-65
2021/10/30 01:50:28;;;;;;;9.43;6.60;;;13.00;99.90;;;;;;4923319;29;20576;-65
2021/10/30 01:52:59;;;;;;;7.28;6.43;;;12.90;99.90;;;;;;4927363;29;20058;-64
2021/10/30 01:55:27;;;;;;;8.13;5.90;;;12.90;99.90;;;;;;4910256;29;20060;-65
2021/10/30 01:57:53;;;;;;;7.40;6.22;;;12.90;99.90;;;;;;4942493;29;20049;-65
2021/10/30 02:00:19;;;;;;;7.97;6.70;;;12.90;99.90;;;;;;4927131;29;20115;-64
2021/10/30 02:02:45;;;;;;;7.90;6.30;;;13.00;99.90;;;;;;4942541;29;20063;-65
2021/10/30 02:05:12;;;;;;;8.30;6.47;;;12.70;99.90;;;;;;4941973;29;20080;-65
2021/10/30 02:07:38;;;;;;;8.88;6.40;;;12.70;99.90;;;;;;4910409;29;20059;-65
2021/10/30 02:10:07;;;;;;;7.50;6.40;;;12.60;99.90;;;;;;4941446;29;20095;-65
2021/10/30 02:12:34;;;;;;;8.77;6.72;;;12.60;99.90;;;;;;4922273;29;20040;-65
2021/10/30 02:15:00;;;;;;;7.53;6.75;;;12.60;99.90;;;;;;4941526;29;20048;-65
2021/10/30 02:17:26;;;;;;;9.43;7.10;;;12.60;99.90;;;;;;4915699;29;20103;-65
2021/10/30 02:19:52;;;;;;;7.53;6.55;;;12.50;99.90;;;;;;4910528;29;20052;-65
2021/10/30 02:22:18;;;;;;;10.77;6.90;;;12.50;99.90;;;;;;4910833;29;20139;-65
2021/10/30 02:24:44;;;;;;;9.63;7.50;;;12.50;99.90;;;;;;4926308;29;20138;-64
2021/10/30 02:27:10;;;;;;;8.25;7.32;;;12.30;99.90;;;;;;4926679;29;20050;-65
2021/10/30 02:29:36;;;;;;;8.38;6.97;;;12.20;99.90;;;;;;4927674;29;20071;-65
2021/10/30 02:32:03;;;;;;;9.90;6.78;;;12.10;99.90;;;;;;4910206;29;20805;-65
2021/10/30 02:34:29;;;;;;;8.52;6.88;;;11.90;99.90;;;;;;4927215;29;20143;-65
2021/10/30 02:36:55;;;;;;;7.63;6.82;;;11.70;99.90;;;;;;4927825;29;20079;-65
2021/10/30 02:39:21;;;;;;;9.40;7.10;;;11.60;99.90;;;;;;4944939;29;20080;-65
2021/10/30 02:41:46;;;;;;;9.73;7.07;;;11.50;99.90;;;;;;4931649;29;20051;-65
2021/10/30 02:44:12;;;;;;;8.77;7.53;;;11.50;99.90;;;;;;4913427;29;20048;-65
2021/10/30 02:46:38;;;;;;;9.52;7.50;;;11.50;99.90;;;;;;4913693;29;20083;-65
2021/10/30 02:49:04;;;;;;;11.07;7.72;;;11.50;99.90;;;;;;4930119;29;20036;-65
2021/10/30 02:51:30;;;;;;;9.00;8.10;;;11.50;99.90;;;;;;4945193;29;20068;-65
2021/10/30 02:53:56;;;;;;;10.25;8.27;;;11.50;99.90;;;;;;4913094;29;20091;-65
2021/10/30 02:56:21;;;;;;;9.82;8.38;;;11.50;99.90;;;;;;4945521;29;20052;-65
2021/10/30 02:58:48;;;;;;;11.55;8.30;;;11.60;99.90;;;;;;4931202;29;20042;-65
2021/10/30 03:01:14;;;;;;;11.50;8.63;;;11.60;99.90;;;;;;4930487;29;20059;-64
2021/10/30 03:03:41;;;;;;;11.98;8.90;;;11.60;99.90;;;;;;4944858;29;20044;-65
2021/10/30 03:06:08;;;;;;;9.88;8.30;;;11.60;99.90;;;;;;4912981;29;20056;-65
2021/10/30 03:08:35;;;;;;;11.55;8.90;;;11.60;99.90;;;;;;4930006;29;20044;-64
2021/10/30 03:11:01;;;;;;;11.45;8.73;;;11.60;99.90;;;;;;4913007;29;20094;-65
2021/10/30 03:13:27;;;;;;;9.88;8.40;;;11.50;99.90;;;;;;4913091;29;20036;-65
2021/10/30 03:15:54;;;;;;;12.88;9.48;;;11.50;99.90;;;;;;4929929;29;20044;-65
2021/10/30 03:18:20;;;;;;;11.80;10.00;;;11.40;99.90;;;;;;4919320;29;20067;-65
2021/10/30 03:20:46;;;;;;;14.93;10.18;;;11.50;99.90;;;;;;4930141;29;20056;-65
2021/10/30 03:23:12;;;;;;;12.98;10.27;;;11.50;99.90;;;;;;4929346;29;20047;-65
2021/10/30 03:25:38;;;;;;;12.38;10.50;;;11.50;99.90;;;;;;4928213;29;20051;-64
2021/10/30 03:28:04;;;;;;;14.00;10.57;;;11.50;99.90;;;;;;4913150;29;20044;-65
2021/10/30 03:30:30;;;;;;;14.15;11.25;;;11.50;99.90;;;;;;4929838;29;20131;-65
2021/10/30 03:32:56;;;;;;;13.43;10.93;;;11.50;99.90;;;;;;4928313;29;20040;-65
2021/10/30 03:35:21;;;;;;;15.63;11.45;;;11.50;99.90;;;;;;4912946;29;20056;-65
2021/10/30 03:37:47;;;;;;;11.80;10.52;;;11.60;99.90;;;;;;4929610;29;20032;-65
2021/10/30 03:40:13;;;;;;;13.07;10.95;;;11.50;99.90;;;;;;4930552;29;20052;-65
2021/10/30 03:42:39;;;;;;;12.65;11.35;;;11.60;99.90;;;;;;4930542;29;20059;-65
2021/10/30 03:45:07;;;;;;;13.23;11.82;;;11.60;99.90;;;;;;4930692;29;20044;-65
2021/10/30 03:47:34;;;;;;;14.52;11.85;;;11.50;99.90;;;;;;4929670;29;20044;-65
2021/10/30 03:50:00;;;;;;;12.15;10.73;;;11.40;99.90;;;;;;4943309;29;20044;-65
2021/10/30 03:52:26;;;;;;;12.40;11.10;;;11.40;99.90;;;;;;4912005;29;20044;-65
2021/10/30 03:54:53;;;;;;;14.20;12.23;;;11.30;99.90;;;;;;4913203;29;20135;-65
2021/10/30 03:57:20;;;;;;;15.05;12.80;;;11.30;99.90;;;;;;4929857;29;20063;-65
2021/10/30 03:59:45;;;;;;;14.13;11.55;;;11.30;99.90;;;;;;4913381;29;20064;-65
2021/10/30 04:02:11;;;;;;;15.02;12.32;;;11.30;99.90;;;;;;4911561;29;20059;-65
2021/10/30 04:04:38;;;;;;;14.80;12.07;;;11.20;99.90;;;;;;4912542;29;20099;-65
2021/10/30 04:07:04;;;;;;;16.80;13.10;;;11.20;99.90;;;;;;4911963;29;20055;-65
2021/10/30 04:09:30;;;;;;;15.38;12.57;;;11.10;99.90;;;;;;4944188;29;20044;-64
2021/10/30 04:11:55;;;;;;;15.00;13.00;;;11.20;99.90;;;;;;4944739;29;20052;-65
2021/10/30 04:14:22;;;;;;;16.55;13.38;;;11.10;99.90;;;;;;4942952;29;20052;-64
2021/10/30 04:16:48;;;;;;;19.80;14.82;;;11.20;99.90;;;;;;4913018;29;20044;-65
2021/10/30 04:19:14;;;;;;;16.98;14.57;;;11.30;99.90;;;;;;4948510;29;20405;-65
2021/10/30 04:21:41;;;;;;;16.88;13.98;;;11.30;99.90;;;;;;4913139;29;20076;-65
2021/10/30 04:24:07;;;;;;;17.17;14.48;;;11.30;99.90;;;;;;4929383;29;20053;-65
2021/10/30 04:26:34;;;;;;;19.83;14.93;;;11.30;99.90;;;;;;4928113;29;20497;-64
2021/10/30 04:29:00;;;;;;;18.35;15.23;;;11.20;99.90;;;;;;4928732;29;20080;-65
2021/10/30 04:31:28;;;;;;;17.83;15.85;;;11.20;99.90;;;;;;4911578;29;20064;-64
2021/10/30 04:33:59;;;;;;;18.10;15.65;;;11.30;99.90;;;;;;4911629;29;20060;-65
2021/10/30 04:36:27;;;;;;;18.92;16.58;;;11.20;99.90;;;;;;4907470;29;20044;-64
2021/10/30 04:38:54;;;;;;;21.63;15.65;;;11.30;99.90;;;;;;4910490;29;20114;-65
2021/10/30 04:41:20;;;;;;;21.25;15.48;;;11.40;99.90;;;;;;4928569;29;20051;-65
2021/10/30 04:43:46;;;;;;;19.65;16.50;;;11.30;99.90;;;;;;4912564;29;20404;-64
2021/10/30 04:46:17;;;;;;;19.15;14.52;;;11.30;99.90;;;;;;4912050;29;20052;-65
2021/10/30 04:48:44;;;;;;;21.20;16.10;;;11.30;99.90;;;;;;4944146;29;20063;-65
2021/10/30 04:51:10;;;;;;;20.40;16.52;;;11.30;99.90;;;;;;4943545;29;20469;-65
2021/10/30 04:53:39;;;;;;;21.83;15.82;;;11.40;99.90;;;;;;4909482;29;20046;-65
2021/10/30 04:56:06;;;;;;;20.00;15.38;;;11.40;99.90;;;;;;4928162;29;20056;-65
2021/10/30 04:58:33;;;;;;;19.70;16.42;;;11.50;99.90;;;;;;4942657;29;20103;-64
2021/10/30 05:01:01;;;;;;;22.55;17.17;;;11.50;99.90;;;;;;4927011;29;20055;-65
2021/10/30 05:03:27;;;;;;;21.83;17.17;;;11.40;99.90;;;;;;4942804;29;20075;-65
2021/10/30 05:05:53;;;;;;;20.05;16.90;;;11.30;99.90;;;;;;4929510;29;20056;-65
2021/10/30 05:08:19;;;;;;;21.27;16.80;;;11.30;99.90;;;;;;4943993;29;20489;-65
2021/10/30 05:10:45;;;;;;;22.48;16.73;;;11.30;99.90;;;;;;4910453;29;20039;-64
2021/10/30 05:13:11;;;;;;;23.35;18.75;;;11.30;99.90;;;;;;4910758;29;20052;-65
2021/10/30 05:15:37;;;;;;;19.13;16.17;;;11.30;99.90;;;;;;4922044;29;20044;-65
2021/10/30 05:18:03;;;;;;;21.20;16.85;;;11.30;99.90;;;;;;4916194;29;20131;-65
2021/10/30 05:20:29;;;;;;;20.30;16.42;;;11.30;99.90;;;;;;4943533;29;20075;-65
2021/10/30 05:22:55;;;;;;;19.15;16.95;;;11.20;99.90;;;;;;4929262;29;20036;-64
2021/10/30 05:25:24;;;;;;;20.98;16.80;;;11.20;99.90;;;;;;4924521;29;20055;-65
2021/10/30 05:27:50;;;;;;;21.98;16.45;;;11.20;99.90;;;;;;4911162;29;20059;-65
2021/10/30 05:30:17;;;;;;;21.67;17.23;;;11.20;99.90;;;;;;4910339;29;20052;-65
2021/10/30 05:32:42;;;;;;;17.77;15.82;;;11.20;99.90;;;;;;4910843;29;20108;-65
2021/10/30 05:35:08;;;;;;;20.45;15.18;;;11.30;99.90;;;;;;4942107;29;20082;-65
2021/10/30 05:37:34;;;;;;;18.40;14.80;;;11.30;99.90;;;;;;4942397;29;20056;-65
2021/10/30 05:40:01;;;;;;;19.55;14.90;;;11.30;99.90;;;;;;4926142;29;20052;-65
2021/10/30 05:42:27;;;;;;;17.52;13.90;;;11.40;99.90;;;;;;4909995;29;20052;-65
2021/10/30 05:44:53;;;;;;;16.67;14.80;;;11.40;99.90;;;;;;4927724;29;20055;-65
2021/10/30 05:47:19;;;;;;;16.50;13.27;;;11.40;99.90;;;;;;4911159;29;20044;-64
2021/10/30 05:49:44;;;;;;;14.50;12.88;;;11.30;99.90;;;;;;4927216;29;20055;-65
2021/10/30 05:52:11;;;;;;;17.20;13.25;;;11.30;99.90;;;;;;4942000;29;20048;-64
2021/10/30 05:54:38;;;;;;;16.80;12.90;;;11.30;99.90;;;;;;4928664;29;20079;-65
2021/10/30 05:57:08;;;;;;;20.08;12.65;;;11.30;99.90;;;;;;4911473;29;20087;-65
2021/10/30 05:59:33;;;;;;;17.23;12.33;;;11.30;99.90;;;;;;4927756;29;20052;-65
2021/10/30 06:01:59;;;;;;;14.88;11.55;;;11.40;99.90;;;;;;4927435;29;20351;-65
2021/10/30 06:04:25;;;;;;;16.95;11.30;;;11.40;99.90;;;;;;4941660;29;20048;-64
2021/10/30 06:06:50;;;;;;;17.85;11.32;;;11.50;99.90;;;;;;4942964;29;20056;-65
2021/10/30 06:09:17;;;;;;;13.88;11.40;;;11.50;99.90;;;;;;4941487;29;20040;-65
2021/10/30 06:11:43;;;;;;;12.93;10.25;;;11.60;99.90;;;;;;4891535;29;20048;-64
2021/10/30 06:14:10;;;;;;;14.27;11.93;;;11.70;99.90;;;;;;4909315;29;20059;-64
2021/10/30 06:16:37;;;;;;;15.30;10.50;;;11.70;99.90;;;;;;4942523;29;20100;-65
2021/10/30 06:19:03;;;;;;;14.60;10.35;;;11.60;99.90;;;;;;4931611;29;20143;-64
2021/10/30 06:21:29;;;;;;;13.15;9.75;;;11.70;99.90;;;;;;4942016;29;20055;-65
2021/10/30 06:23:58;;;;;;;13.98;10.82;;;11.70;99.90;;;;;;4909608;29;20100;-64
2021/10/30 06:26:28;;;;;;;15.90;10.23;;;11.70;99.90;;;;;;4926929;29;20080;-65
2021/10/30 06:28:54;;;;;;;12.32;10.30;;;11.70;99.90;;;;;;4942853;29;20081;-65
2021/10/30 06:31:21;;;;;;;12.23;9.63;;;11.60;99.90;;;;;;4911236;29;20076;-65
2021/10/30 06:33:47;;;;;;;13.10;10.20;;;11.60;99.90;;;;;;4941588;29;20599;-65
2021/10/30 06:36:12;;;;;;;15.60;11.13;;;11.60;99.90;;;;;;4927306;29;20044;-65
2021/10/30 06:38:38;;;;;;;12.85;10.15;;;11.60;99.90;;;;;;4908931;29;20044;-65
2021/10/30 06:41:06;;;;;;;12.45;9.98;;;11.50;99.90;;;;;;4926645;29;20131;-64
2021/10/30 06:43:32;;;;;;;15.52;10.95;;;11.50;99.90;;;;;;4894056;29;20048;-65
2021/10/30 06:45:58;;;;;;;11.43;9.68;;;11.50;99.90;;;;;;4927547;29;20405;-65
2021/10/30 06:48:24;;;;;;;14.15;10.30;;;11.50;99.90;;;;;;4927176;29;20568;-65
2021/10/30 06:50:53;;;;;;;16.80;9.90;;;11.50;99.90;;;;;;4910005;29;20048;-65
2021/10/30 06:53:18;;;;;;;11.18;9.65;;;11.60;99.90;;;;;;4925725;29;20055;-65
2021/10/30 06:55:44;;;;;;;12.95;9.80;;;11.50;99.90;;;;;;4941290;29;20409;-65
2021/10/30 06:58:10;;;;;;;16.15;11.50;;;11.50;99.90;;;;;;4904451;29;20052;-65
2021/10/30 07:00:36;;;;;;;16.02;10.95;;;11.50;99.90;;;;;;4889089;29;20061;-65
2021/10/30 07:03:02;;;;;;;15.75;10.27;;;11.60;99.90;;;;;;4889564;29;20100;-64
2021/10/30 07:05:28;;;;;;;13.38;9.95;;;11.70;99.90;;;;;;4918948;29;20049;-65
2021/10/30 07:07:54;;;;;;;12.55;9.02;;;11.60;99.90;;;;;;4919484;29;20057;-65
2021/10/30 07:10:19;;;;;;;13.48;9.82;;;11.60;99.90;;;;;;4888931;29;20109;-65
2021/10/30 07:12:45;;;;;;;11.93;9.48;;;11.60;99.90;;;;;;4887891;29;20053;-65
2021/10/30 07:15:13;;;;;;;15.50;9.63;;;11.50;99.90;;;;;;4889353;29;20117;-65
2021/10/30 07:17:40;;;;;;;11.95;9.45;;;11.60;99.90;;;;;;4895771;29;20040;-65
2021/10/30 07:20:07;;;;;;;12.23;8.35;;;11.70;99.90;;;;;;4888054;29;20045;-65
2021/10/30 07:22:47;;;;;;;12.60;10.00;;;11.70;99.90;;;;;;4888228;29;20550;-67
2021/10/30 07:25:14;;;;;;;14.80;10.05;;;11.80;99.90;;;;;;4905357;29;20504;-64
2021/10/30 07:27:42;;;;;;;13.35;9.23;;;11.80;99.90;;;;;;4893027;29;20073;-65
2021/10/30 07:30:09;;;;;;;11.93;8.40;;;11.70;99.90;;;;;;4891251;29;20105;-64
2021/10/30 07:32:35;;;;;;;10.65;9.07;;;11.70;99.90;;;;;;4922317;29;20056;-64
2021/10/30 07:35:02;;;;;;;11.38;9.10;;;11.60;99.90;;;;;;4920435;29;20084;-64
2021/10/30 07:37:28;;;;;;;12.38;9.43;;;11.60;99.90;;;;;;4891753;29;20104;-64
2021/10/30 07:39:54;;;;;;;12.18;8.93;;;11.60;99.90;;;;;;4890825;29;20136;-64
2021/10/30 07:42:20;;;;;;;10.43;9.13;;;11.60;99.90;;;;;;4891221;29;20140;-65
2021/10/30 07:44:46;;;;;;;12.68;9.98;;;11.70;99.90;;;;;;4922873;29;20049;-64
2021/10/30 07:47:12;;;;;;;14.68;10.50;;;11.80;99.90;;;;;;4891931;29;20060;-64
2021/10/30 07:49:39;;;;;;;11.52;9.40;;;11.80;99.90;;;;;;4892178;29;20045;-64
2021/10/30 07:52:06;;;;;;;10.85;8.85;;;11.80;99.90;;;;;;4922926;29;20060;-64
2021/10/30 07:54:34;;;;;;;10.68;8.25;;;11.80;99.90;;;;;;4891798;29;20057;-64
2021/10/30 07:57:02;;;;;;;11.18;8.20;;;11.90;99.90;;;;;;4891806;29;20048;-64
2021/10/30 07:59:30;;;;;;;22.50;13.07;;;12.00;99.90;;;;;;4902488;29;20058;-64
2021/10/30 08:01:56;;;;;;;12.48;9.82;;;11.90;99.90;;;;;;4912335;29;20066;-63
2021/10/30 08:04:23;;;;;;;12.38;10.32;;;11.90;99.90;;;;;;4913387;29;20036;-63
2021/10/30 08:06:49;;;;;;;29.13;16.70;;;11.90;99.90;;;;;;4930515;29;20465;-63
2021/10/30 08:09:15;;;;;;;16.48;11.15;;;11.90;99.90;;;;;;4944346;29;20100;-64
2021/10/30 08:11:40;;;;;;;11.35;9.05;;;12.00;99.90;;;;;;4944119;29;20063;-64
2021/10/30 08:14:06;;;;;;;12.60;9.35;;;12.10;99.90;;;;;;4927422;29;20036;-64
2021/10/30 08:16:32;;;;;;;10.18;8.25;;;12.10;99.90;;;;;;4929792;29;20092;-64
2021/10/30 08:18:58;;;;;;;12.07;8.48;;;12.20;99.90;;;;;;4929235;29;20052;-64
2021/10/30 08:21:24;;;;;;;10.25;8.55;;;12.20;99.90;;;;;;4943445;29;20052;-65
2021/10/30 08:23:50;;;;;;;14.50;9.02;;;12.30;99.90;;;;;;4912795;29;20044;-64
2021/10/30 08:26:17;;;;;;;11.52;8.40;;;12.20;99.90;;;;;;4929330;29;20059;-63
2021/10/30 08:28:48;;;;;;;12.93;9.30;;;12.20;99.90;;;;;;4912991;29;20501;-64
2021/10/30 08:31:14;;;;;;;11.88;8.90;;;12.20;99.90;;;;;;4944351;29;20059;-65
2021/10/30 08:33:40;;;;;;;12.30;9.25;;;12.20;99.90;;;;;;4911891;29;20100;-65
2021/10/30 08:36:05;;;;;;;12.18;8.98;;;12.30;99.90;;;;;;4928398;29;20039;-64
2021/10/30 08:38:32;;;;;;;11.52;8.75;;;12.30;99.90;;;;;;4928483;29;20182;-64
2021/10/30 08:40:59;;;;;;;14.63;9.18;;;12.30;99.90;;;;;;4942944;29;20060;-65
2021/10/30 08:43:26;;;;;;;12.23;9.07;;;12.20;99.90;;;;;;4912042;29;20044;-65
2021/10/30 08:45:54;;;;;;;13.13;9.38;;;12.10;99.90;;;;;;4929641;29;20051;-65
2021/10/30 08:48:22;;;;;;;12.32;9.75;;;12.20;99.90;;;;;;4911344;29;20077;-64
2021/10/30 08:50:52;;;;;;;15.88;10.82;;;12.10;99.90;;;;;;4942500;29;20119;-63
2021/10/30 08:53:19;;;;;;;22.15;14.02;;;12.00;99.90;;;;;;4918165;29;20052;-63
2021/10/30 08:55:46;;;;;;;19.23;12.10;;;12.10;99.90;;;;;;4936278;29;20064;-63
2021/10/30 08:58:14;;;;;;;17.70;11.77;;;12.20;99.90;;;;;;4920612;29;20036;-63
2021/10/30 09:00:43;;;;;;;17.40;11.63;;;12.30;99.90;;;;;;4918556;29;20060;-63
2021/10/30 09:03:10;;;;;;;14.40;9.70;;;12.30;99.90;;;;;;4910993;29;20140;-63
2021/10/30 09:05:37;;;;;;;13.82;9.55;;;12.20;99.90;;;;;;4942875;29;20139;-63
2021/10/30 09:08:07;;;;;;;11.90;8.65;;;12.20;99.90;;;;;;4912228;29;20083;-63
2021/10/30 09:10:36;;;;;;;11.43;8.75;;;12.30;99.90;;;;;;4910916;29;20059;-63
2021/10/30 09:13:05;;;;;;;15.00;10.47;;;12.50;99.90;;;;;;4924057;29;20054;-63
2021/10/30 09:15:36;;;;;;;12.07;9.27;;;12.40;99.90;;;;;;4917977;29;20569;-63
2021/10/30 09:18:03;;;;;;;10.98;8.18;;;12.40;99.90;;;;;;4917946;29;20584;-62
2021/10/30 09:20:36;;;;;;;10.00;7.78;;;12.70;99.90;;;;;;4921993;29;20055;-62
2021/10/30 09:23:07;;;;;;;10.88;7.88;;;12.80;99.90;;;;;;4897533;29;20127;-62
2021/10/30 09:25:33;;;;;;;9.13;7.65;;;13.00;99.90;;;;;;4917741;29;20496;-62
2021/10/30 09:28:01;;;;;;;11.50;7.53;;;13.00;99.90;;;;;;4912522;29;20044;-62
2021/10/30 09:30:36;;;;;;;9.98;7.65;;;13.00;99.90;;;;;;4898066;29;20049;-62
2021/10/30 09:33:10;;;;;;;9.80;7.03;;;13.00;99.90;;;;;;4899305;29;20143;-63
2021/10/30 09:35:41;;;;;;;9.90;7.30;;;13.20;99.90;;;;;;4910675;29;20120;-63
2021/10/30 09:38:11;;;;;;;9.45;7.30;;;13.10;99.90;;;;;;4927789;29;20501;-63
2021/10/30 09:40:37;;;;;;;11.27;8.05;;;13.10;99.90;;;;;;4927434;29;20096;-63
2021/10/30 09:43:16;;;;;;;7.00;5.25;;;12.90;99.90;;;;;;4928201;29;20493;-63
2021/10/30 09:46:10;;;;;;;10.45;8.00;;;13.10;99.90;;;;;;4911414;29;20103;-62
2021/10/30 09:48:40;;;;;;;10.13;7.63;;;13.10;99.90;;;;;;4912724;29;20100;-62
2021/10/30 09:51:06;;;;;;;11.48;8.68;;;13.10;99.90;;;;;;4911246;29;20064;-62
2021/10/30 09:53:39;;;;;;;10.35;8.05;;;13.10;99.90;;;;;;4942052;29;20055;-62
2021/10/30 09:56:11;;;;;;;7.72;6.63;;;13.30;99.90;;;;;;4921091;29;20172;-62
2021/10/30 09:58:47;;;;;;;9.23;6.45;;;13.30;99.90;;;;;;4909542;29;20044;-62
2021/10/30 10:01:19;;;;;;;8.95;7.20;;;13.40;99.90;;;;;;4894239;29;20053;-62
2021/10/30 10:03:46;;;;;;;9.73;7.60;;;13.50;99.90;;;;;;4888855;29;20056;-62
2021/10/30 10:06:14;;;;;;;10.85;6.65;;;13.40;99.90;;;;;;4889101;29;20090;-62
2021/10/30 10:08:45;;;;;;;10.13;7.47;;;13.40;99.90;;;;;;4889756;29;20044;-62
2021/10/30 10:11:13;;;;;;;8.88;6.57;;;13.60;99.90;;;;;;4919719;29;20049;-62
2021/10/30 10:13:43;;;;;;;10.30;7.82;;;13.60;99.90;;;;;;4891006;29;20380;-62
2021/10/30 10:16:14;;;;;;;11.23;8.07;;;13.50;99.90;;;;;;4889464;29;20056;-62
2021/10/30 10:18:41;;;;;;;8.68;7.30;;;13.50;99.90;;;;;;4894904;29;20105;-64
2021/10/30 10:21:11;;;;;;;9.65;7.72;;;13.60;99.90;;;;;;4918877;29;20078;-62
2021/10/30 10:23:40;;;;;;;9.60;7.30;;;13.70;99.90;;;;;;4889836;29;20041;-63
2021/10/30 10:26:06;;;;;;;9.52;7.65;;;13.60;99.90;;;;;;4887193;29;20140;-64
2021/10/30 10:28:34;;;;;;;9.77;7.40;;;13.60;99.90;;;;;;4890108;29;20530;-63
2021/10/30 10:31:04;;;;;;;6.68;5.28;;;13.70;99.90;;;;;;4889209;29;20081;-63
2021/10/30 10:33:31;;;;;;;9.05;7.03;;;13.80;99.90;;;;;;4888115;29;20406;-64
2021/10/30 10:36:18;;;;;;;8.95;6.75;;;13.80;99.90;;;;;;4887281;29;20073;-64
2021/10/30 10:38:53;;;;;;;10.10;7.22;;;13.70;99.90;;;;;;4872501;29;20109;-64
2021/10/30 10:41:37;;;;;;;10.18;6.97;;;13.70;99.90;;;;;;4883954;29;20506;-64
2021/10/30 10:44:09;;;;;;;10.95;6.30;;;13.90;99.90;;;;;;4903039;29;20045;-63
2021/10/30 10:46:42;;;;;;;9.40;6.70;;;13.80;99.90;;;;;;4890381;29;20037;-63
2021/10/30 10:49:21;;;;;;;11.20;7.40;;;13.80;99.90;;;;;;4890195;29;20052;-63
2021/10/30 10:51:49;;;;;;;7.07;5.32;;;13.70;99.90;;;;;;4887955;29;20069;-65
2021/10/30 10:54:15;;;;;;;9.50;7.03;;;13.60;99.90;;;;;;4887644;29;20053;-65
2021/10/30 10:57:19;;;;;;;9.65;7.40;;;13.60;99.90;;;;;;4889186;29;20049;-66
2021/10/30 10:59:44;;;;;;;12.40;7.00;;;13.60;99.90;;;;;;4890185;29;20049;-65
2021/10/30 11:02:16;;;;;;;8.10;5.38;;;13.70;99.90;;;;;;4910815;29;20096;-65
2021/10/30 11:05:08;;;;;;;9.43;7.60;;;13.80;99.90;;;;;;4910301;29;20132;-65
2021/10/30 11:07:42;;;;;;;9.80;6.50;;;13.70;99.90;;;;;;4899845;29;20060;-65
2021/10/30 11:10:27;;;;;;;10.07;8.73;;;13.70;99.90;;;;;;4887064;29;20051;-65
2021/10/30 11:13:02;;;;;;;8.43;6.57;;;13.60;99.90;;;;;;4913056;29;20528;-65
2021/10/30 11:15:55;;;;;;;8.30;6.78;;;13.60;99.90;;;;;;4944717;29;20052;-65
2021/10/30 11:18:30;;;;;;;10.10;7.30;;;13.60;99.90;;;;;;4950536;29;20052;-65
2021/10/30 11:21:25;;;;;;;9.43;6.90;;;13.70;99.90;;;;;;4944669;29;20060;-65
2021/10/30 11:23:53;;;;;;;9.00;7.32;;;13.60;99.90;;;;;;4928400;29;20068;-65
2021/10/30 11:26:27;;;;;;;8.65;7.10;;;13.60;99.90;;;;;;4929379;29;20413;-65
2021/10/30 11:29:01;;;;;;;13.52;8.63;;;13.70;99.90;;;;;;4913957;29;20068;-63
2021/10/30 11:31:30;;;;;;;10.65;7.20;;;13.70;99.90;;;;;;4930841;29;20044;-64
2021/10/30 11:34:00;;;;;;;8.68;7.22;;;13.70;99.90;;;;;;4930808;29;20059;-63
2021/10/30 11:36:27;;;;;;;10.07;7.70;;;13.70;99.90;;;;;;4945245;29;20054;-64
2021/10/30 11:38:55;;;;;;;10.23;8.30;;;13.80;99.90;;;;;;4930671;29;20137;-64
2021/10/30 11:41:29;;;;;;;11.38;8.80;;;13.80;99.90;;;;;;4930981;29;20056;-64
2021/10/30 11:44:04;;;;;;;8.43;7.38;;;13.80;99.90;;;;;;4929236;29;20040;-64
2021/10/30 11:46:31;;;;;;;9.00;7.28;;;14.00;99.90;;;;;;4930259;29;20059;-64
2021/10/30 11:48:59;;;;;;;8.43;6.70;;;13.90;99.90;;;;;;4944925;29;20044;-64
2021/10/30 11:51:31;;;;;;;9.15;7.13;;;13.90;99.90;;;;;;4929757;29;20051;-64
2021/10/30 11:53:57;;;;;;;9.00;7.22;;;14.00;99.90;;;;;;4912695;29;20063;-64
2021/10/30 11:56:26;;;;;;;11.52;7.00;;;14.00;99.90;;;;;;4912311;29;20079;-64
2021/10/30 11:58:55;;;;;;;7.40;6.15;;;14.00;99.90;;;;;;4912657;29;20107;-64
2021/10/30 12:01:25;;;;;;;7.80;6.72;;;13.90;99.90;;;;;;4914681;29;20096;-64
2021/10/30 12:04:10;;;;;;;;;;;14.00;99.90;;;;;;4930828;29;20067;-64
2021/10/30 12:06:57;;;;;;;8.23;6.85;;;13.90;99.90;;;;;;4912676;29;20009;-64
2021/10/30 12:09:40;;;;;;;10.18;6.43;;;14.10;99.90;;;;;;4925984;29;20051;-64
2021/10/30 12:12:21;;;;;;;7.22;6.22;;;13.90;99.90;;;;;;4944098;29;20055;-64
2021/10/30 12:14:50;;;;;;;8.65;6.07;;;14.00;99.90;;;;;;4912088;29;20048;-64
2021/10/30 12:17:18;;;;;;;8.02;5.63;;;14.10;99.90;;;;;;4929634;29;20374;-64
2021/10/30 12:20:09;;;;;;;9.05;6.03;;;14.00;99.90;;;;;;4929486;29;20040;-64
2021/10/30 12:22:43;;;;;;;7.88;6.03;;;14.10;99.90;;;;;;4897392;29;20099;-64
2021/10/30 12:25:10;;;;;;;9.27;6.35;;;14.00;99.90;;;;;;4928388;29;20051;-64
2021/10/30 12:27:52;;;;;;;7.97;6.22;;;13.90;99.90;;;;;;4911718;29;20122;-64
2021/10/30 12:30:31;;;;;;;9.43;5.90;;;14.10;99.90;;;;;;4928708;29;20048;-64
2021/10/30 12:33:09;;;;;;;8.98;6.00;;;14.00;99.90;;;;;;4929118;29;20051;-64
2021/10/30 12:35:37;;;;;;;6.78;5.95;;;14.10;99.90;;;;;;4928738;29;20060;-64
2021/10/30 12:38:24;;;;;;;8.98;5.88;;;14.20;99.90;;;;;;4927929;29;20090;-64
2021/10/30 12:40:52;;;;;;;7.68;6.15;;;14.20;99.90;;;;;;4928676;29;20052;-64
2021/10/30 12:43:19;;;;;;;7.57;5.95;;;14.00;99.90;;;;;;4927917;29;20087;-64